createdAt,value
2023-04-20T00:00:12.779Z,952.9950
2023-04-20T00:01:16.656Z,952.9675
2023-04-20T00:02:20.637Z,952.9492
2023-04-20T00:03:24.952Z,952.9391
2023-04-20T00:04:28.934Z,952.9409
2023-04-20T00:05:33.091Z,952.9425
2023-04-20T00:06:37.005Z,952.9592
2023-04-20T00:07:40.913Z,952.9758
2023-04-20T00:08:44.874Z,952.9850
2023-04-20T00:09:48.719Z,952.9783
2023-04-20T00:10:52.612Z,952.9675
2023-04-20T00:11:56.530Z,952.9509
2023-04-20T00:13:00.405Z,952.9258
2023-04-20T00:14:04.297Z,952.8942
2023-04-20T00:15:08.179Z,952.8716
2023-04-20T00:16:12.090Z,952.8666
2023-04-20T00:17:15.975Z,952.8425
2023-04-20T00:18:19.910Z,952.8433
2023-04-20T00:19:23.795Z,952.8234
2023-04-20T00:20:27.719Z,952.8100
2023-04-20T00:21:31.583Z,952.7833
2023-04-20T00:22:35.488Z,952.7575
2023-04-20T00:23:39.413Z,952.7291
2023-04-20T00:24:43.325Z,952.7059
2023-04-20T00:25:47.532Z,952.7084
2023-04-20T00:26:51.444Z,952.7034
2023-04-20T00:27:55.554Z,952.6859
2023-04-20T00:28:59.463Z,952.6741
2023-04-20T00:30:03.338Z,952.6642
2023-04-20T00:31:07.292Z,952.6292
2023-04-20T00:32:11.153Z,952.6067
2023-04-20T00:33:15.056Z,952.5609
2023-04-20T00:34:18.956Z,952.5342
2023-04-20T00:35:23.104Z,952.4925
2023-04-20T00:36:27.013Z,952.4625
2023-04-20T00:37:30.884Z,952.4275
2023-04-20T00:38:35.106Z,952.4008
2023-04-20T00:39:38.997Z,952.3716
2023-04-20T00:40:42.909Z,952.3525
2023-04-20T00:41:46.782Z,952.3450
2023-04-20T00:42:50.686Z,952.3500
2023-04-20T00:43:54.835Z,952.3525
2023-04-20T00:44:58.715Z,952.3608
2023-04-20T00:46:02.882Z,952.3516
2023-04-20T00:47:06.743Z,952.3458
2023-04-20T00:48:10.646Z,952.3334
2023-04-20T00:49:14.551Z,952.3217
2023-04-20T00:50:18.473Z,952.3116
2023-04-20T00:51:22.358Z,952.3000
2023-04-20T00:52:26.248Z,952.2842
2023-04-20T00:53:30.149Z,952.2667
2023-04-20T00:54:34.055Z,952.2516
2023-04-20T00:55:38.008Z,952.2458
2023-04-20T00:56:41.910Z,952.2308
2023-04-20T00:57:45.789Z,952.2300
2023-04-20T00:58:49.688Z,952.2200
2023-04-20T00:59:53.613Z,952.2208
2023-04-20T01:00:57.495Z,952.2117
2023-04-20T01:02:01.439Z,952.1950
2023-04-20T01:03:05.492Z,952.1567
2023-04-20T01:04:09.544Z,952.1317
2023-04-20T01:05:13.460Z,952.1041
2023-04-20T01:06:17.375Z,952.0734
2023-04-20T01:07:21.245Z,952.0684
2023-04-20T01:08:25.143Z,952.0441
2023-04-20T01:09:29.017Z,952.0383
2023-04-20T01:10:32.931Z,952.0466
2023-04-20T01:11:36.827Z,952.0416
2023-04-20T01:12:40.708Z,952.0400
2023-04-20T01:13:44.615Z,952.0275
2023-04-20T01:14:48.499Z,952.0167
2023-04-20T01:15:52.413Z,951.9966
2023-04-20T01:16:56.288Z,951.9667
2023-04-20T01:18:00.352Z,951.9425
2023-04-20T01:19:04.212Z,951.9150
2023-04-20T01:20:08.099Z,951.8917
2023-04-20T01:21:12.002Z,951.8641
2023-04-20T01:22:15.901Z,951.8242
2023-04-20T01:23:19.795Z,951.7966
2023-04-20T01:24:23.677Z,951.7792
2023-04-20T01:25:27.570Z,951.7792
2023-04-20T01:26:31.466Z,951.7684
2023-04-20T01:27:35.364Z,951.7783
2023-04-20T01:28:39.251Z,951.7817
2023-04-20T01:29:43.149Z,951.7941
2023-04-20T01:30:47.029Z,951.7916
2023-04-20T01:31:51.021Z,951.7833
2023-04-20T01:32:54.948Z,951.7642
2023-04-20T01:33:58.884Z,951.7416
2023-04-20T01:35:02.750Z,951.7225
2023-04-20T01:36:06.661Z,951.6850
2023-04-20T01:37:10.562Z,951.6575
2023-04-20T01:38:14.676Z,951.6216
2023-04-20T01:39:18.735Z,951.6000
2023-04-20T01:40:22.915Z,951.5858
2023-04-20T01:41:26.800Z,951.5667
2023-04-20T01:42:30.684Z,951.5491
2023-04-20T01:43:34.842Z,951.5433
2023-04-20T01:44:38.730Z,951.5450
2023-04-20T01:45:42.641Z,951.5375
2023-04-20T01:46:46.535Z,951.5475
2023-04-20T01:47:50.538Z,951.5491
2023-04-20T01:48:54.383Z,951.5591
2023-04-20T01:49:58.280Z,951.5625
2023-04-20T01:51:02.164Z,951.5667
2023-04-20T01:52:06.062Z,951.5625
2023-04-20T01:53:10.273Z,951.5458
2023-04-20T01:54:14.155Z,951.5317
2023-04-20T01:55:20.036Z,951.5134
2023-04-20T01:56:19.027Z,951.5054
2023-04-20T01:57:22.932Z,951.4933
2023-04-20T01:58:27.066Z,951.4841
2023-04-20T01:59:30.972Z,951.4725
2023-04-20T02:00:34.879Z,951.4492
2023-04-20T02:01:38.752Z,951.4275
2023-04-20T02:02:42.736Z,951.4033
2023-04-20T02:03:47.205Z,951.3741
2023-04-20T02:04:51.199Z,951.3558
2023-04-20T02:05:56.438Z,951.3400
2023-04-20T02:07:00.357Z,951.3292
2023-04-20T02:08:04.215Z,951.3150
2023-04-20T02:09:08.128Z,951.3209
2023-04-20T02:10:12.021Z,951.3167
2023-04-20T02:11:12.350Z,951.3040
2023-04-20T02:12:16.244Z,951.3016
2023-04-20T02:13:20.151Z,951.2966
2023-04-20T02:14:24.034Z,951.2850
2023-04-20T02:15:27.934Z,951.2784
2023-04-20T02:16:31.842Z,951.2584
2023-04-20T02:17:35.794Z,951.2500
2023-04-20T02:18:39.655Z,951.2375
2023-04-20T02:19:43.553Z,951.2158
2023-04-20T02:20:47.614Z,951.1967
2023-04-20T02:21:51.572Z,951.1708
2023-04-20T02:22:55.468Z,951.1691
2023-04-20T02:23:59.333Z,951.1600
2023-04-20T02:25:03.213Z,951.1592
2023-04-20T02:26:07.101Z,951.1542
2023-04-20T02:27:11.026Z,951.1375
2023-04-20T02:28:14.907Z,951.1234
2023-04-20T02:29:18.968Z,951.1075
2023-04-20T02:30:23.282Z,951.0875
2023-04-20T02:31:27.200Z,951.0575
2023-04-20T02:32:31.077Z,951.0350
2023-04-20T02:33:35.175Z,951.0192
2023-04-20T02:34:39.058Z,950.9975
2023-04-20T02:35:42.973Z,950.9866
2023-04-20T02:36:46.857Z,950.9766
2023-04-20T02:37:50.745Z,950.9741
2023-04-20T02:38:54.621Z,950.9733
2023-04-20T02:39:58.497Z,950.9492
2023-04-20T02:41:02.734Z,950.9283
2023-04-20T02:42:06.631Z,950.8934
2023-04-20T02:43:10.542Z,950.8575
2023-04-20T02:44:14.432Z,950.8125
2023-04-20T02:45:18.326Z,950.7783
2023-04-20T02:46:22.232Z,950.7525
2023-04-20T02:47:26.153Z,950.7217
2023-04-20T02:48:29.994Z,950.7258
2023-04-20T02:49:33.905Z,950.7341
2023-04-20T02:50:37.794Z,950.7391
2023-04-20T02:51:41.685Z,950.7584
2023-04-20T02:52:45.590Z,950.7634
2023-04-20T02:53:49.809Z,950.7750
2023-04-20T02:54:53.720Z,950.7809
2023-04-20T02:55:57.833Z,950.7900
2023-04-20T02:57:01.731Z,950.7800
2023-04-20T02:58:05.624Z,950.7675
2023-04-20T02:59:09.521Z,950.7609
2023-04-20T03:00:13.450Z,950.7525
2023-04-20T03:01:17.331Z,950.7425
2023-04-20T03:02:21.467Z,950.7333
2023-04-20T03:03:25.512Z,950.7308
2023-04-20T03:04:29.553Z,950.7266
2023-04-20T03:05:33.430Z,950.7142
2023-04-20T03:06:38.843Z,950.7208
2023-04-20T03:07:37.521Z,950.7136
2023-04-20T03:08:41.423Z,950.7067
2023-04-20T03:09:45.305Z,950.6884
2023-04-20T03:10:49.457Z,950.6800
2023-04-20T03:11:53.344Z,950.6633
2023-04-20T03:12:57.334Z,950.6492
2023-04-20T03:14:01.213Z,950.6292
2023-04-20T03:15:05.110Z,950.6091
2023-04-20T03:16:09.051Z,950.5991
2023-04-20T03:17:12.949Z,950.5884
2023-04-20T03:18:16.855Z,950.6016
2023-04-20T03:19:20.753Z,950.6108
2023-04-20T03:20:24.646Z,950.6234
2023-04-20T03:21:28.551Z,950.6392
2023-04-20T03:22:32.444Z,950.6409
2023-04-20T03:23:36.321Z,950.6392
2023-04-20T03:24:40.226Z,950.6317
2023-04-20T03:25:44.108Z,950.6250
2023-04-20T03:26:48.018Z,950.6225
2023-04-20T03:27:51.904Z,950.6317
2023-04-20T03:28:55.809Z,950.6334
2023-04-20T03:29:59.695Z,950.6484
2023-04-20T03:31:03.927Z,950.6492
2023-04-20T03:32:07.912Z,950.6459
2023-04-20T03:33:11.863Z,950.6250
2023-04-20T03:34:15.794Z,950.5867
2023-04-20T03:35:19.693Z,950.5491
2023-04-20T03:36:23.589Z,950.5142
2023-04-20T03:37:27.505Z,950.4808
2023-04-20T03:38:31.409Z,950.4617
2023-04-20T03:39:35.297Z,950.4484
2023-04-20T03:40:39.207Z,950.4359
2023-04-20T03:41:43.092Z,950.4359
2023-04-20T03:42:47.244Z,950.4384
2023-04-20T03:43:51.118Z,950.4400
2023-04-20T03:44:55.023Z,950.4467
2023-04-20T03:45:58.947Z,950.4534
2023-04-20T03:47:02.843Z,950.4509
2023-04-20T03:48:06.723Z,950.4484
2023-04-20T03:49:10.598Z,950.4617
2023-04-20T03:50:14.699Z,950.4600
2023-04-20T03:51:18.586Z,950.4683
2023-04-20T03:52:22.504Z,950.4750
2023-04-20T03:53:26.401Z,950.4908
2023-04-20T03:54:30.335Z,950.4875
2023-04-20T03:55:34.211Z,950.4791
2023-04-20T03:56:38.123Z,950.4575
2023-04-20T03:57:42.325Z,950.4584
2023-04-20T03:58:46.219Z,950.4700
2023-04-20T03:59:50.096Z,950.4800
2023-04-20T04:00:54.222Z,950.4941
2023-04-20T04:01:58.256Z,950.4858
2023-04-20T04:03:02.348Z,950.4766
2023-04-20T04:04:06.581Z,950.4841
2023-04-20T04:05:10.761Z,950.4858
2023-04-20T04:06:14.646Z,950.4783
2023-04-20T04:07:18.555Z,950.5050
2023-04-20T04:08:22.445Z,950.4875
2023-04-20T04:09:26.322Z,950.4658
2023-04-20T04:10:30.235Z,950.4417
2023-04-20T04:11:34.114Z,950.4208
2023-04-20T04:12:38.022Z,950.4384
2023-04-20T04:13:41.928Z,950.4417
2023-04-20T04:14:45.835Z,950.4409
2023-04-20T04:15:49.734Z,950.4484
2023-04-20T04:16:53.719Z,950.5250
2023-04-20T04:17:57.883Z,950.5383
2023-04-20T04:19:01.778Z,950.5225
2023-04-20T04:20:05.908Z,950.5025
2023-04-20T04:21:09.816Z,950.4891
2023-04-20T04:22:13.704Z,950.4642
2023-04-20T04:23:17.600Z,950.4617
2023-04-20T04:24:21.535Z,950.4417
2023-04-20T04:25:25.456Z,950.3817
2023-04-20T04:26:29.324Z,950.4025
2023-04-20T04:27:33.460Z,950.4525
2023-04-20T04:28:37.374Z,950.5233
2023-04-20T04:29:41.254Z,950.5784
2023-04-20T04:30:45.168Z,950.6158
2023-04-20T04:31:49.123Z,950.6266
2023-04-20T04:32:53.058Z,950.5875
2023-04-20T04:33:56.970Z,950.5625
2023-04-20T04:35:00.863Z,950.5809
2023-04-20T04:36:05.129Z,950.5667
2023-04-20T04:37:09.017Z,950.5717
2023-04-20T04:38:13.174Z,950.5583
2023-04-20T04:39:17.327Z,950.5125
2023-04-20T04:40:21.381Z,950.4525
2023-04-20T04:41:25.293Z,950.3750
2023-04-20T04:42:29.186Z,950.3242
2023-04-20T04:43:33.111Z,950.3292
2023-04-20T04:44:37.049Z,950.3267
2023-04-20T04:45:40.961Z,950.3250
2023-04-20T04:46:44.925Z,950.3575
2023-04-20T04:47:48.868Z,950.3766
2023-04-20T04:48:52.739Z,950.3859
2023-04-20T04:49:56.656Z,950.4033
2023-04-20T04:51:00.587Z,950.4125
2023-04-20T04:52:04.493Z,950.4092
2023-04-20T04:53:08.414Z,950.4142
2023-04-20T04:54:12.309Z,950.4409
2023-04-20T04:55:16.727Z,950.4266
2023-04-20T04:56:20.659Z,950.4117
2023-04-20T04:57:24.875Z,950.3809
2023-04-20T04:58:28.773Z,950.3892
2023-04-20T04:59:32.669Z,950.3658
2023-04-20T05:00:36.561Z,950.3525
2023-04-20T05:01:40.467Z,950.3591
2023-04-20T05:02:44.514Z,950.3492
2023-04-20T05:03:48.494Z,950.3141
2023-04-20T05:04:52.538Z,950.2733
2023-04-20T05:05:56.610Z,950.2225
2023-04-20T05:07:00.487Z,950.1909
2023-04-20T05:08:04.381Z,950.1642
2023-04-20T05:09:08.258Z,950.1658
2023-04-20T05:10:14.035Z,950.1284
2023-04-20T05:11:13.601Z,950.0846
2023-04-20T05:12:17.469Z,950.0800
2023-04-20T05:13:21.379Z,950.0667
2023-04-20T05:14:25.264Z,950.0784
2023-04-20T05:15:29.155Z,950.1025
2023-04-20T05:16:33.099Z,950.1191
2023-04-20T05:17:36.968Z,950.1359
2023-04-20T05:18:40.831Z,950.1467
2023-04-20T05:19:44.707Z,950.1425
2023-04-20T05:20:48.590Z,950.1133
2023-04-20T05:21:52.491Z,950.1208
2023-04-20T05:22:56.636Z,950.1158
2023-04-20T05:24:00.577Z,950.1033
2023-04-20T05:25:04.650Z,950.1033
2023-04-20T05:26:08.533Z,950.1292
2023-04-20T05:27:12.458Z,950.1342
2023-04-20T05:28:16.367Z,950.1375
2023-04-20T05:29:20.251Z,950.1616
2023-04-20T05:30:24.159Z,950.1700
2023-04-20T05:31:28.108Z,950.1575
2023-04-20T05:32:32.248Z,950.1334
2023-04-20T05:33:36.117Z,950.1158
2023-04-20T05:34:40.011Z,950.1000
2023-04-20T05:35:43.929Z,950.0917
2023-04-20T05:36:47.839Z,950.1092
2023-04-20T05:37:51.983Z,950.1525
2023-04-20T05:38:55.897Z,950.2158
2023-04-20T05:39:59.824Z,950.2433
2023-04-20T05:41:03.715Z,950.2642
2023-04-20T05:42:07.612Z,950.2600
2023-04-20T05:43:11.565Z,950.2275
2023-04-20T05:44:15.492Z,950.1633
2023-04-20T05:45:19.408Z,950.1200
2023-04-20T05:46:23.342Z,950.1200
2023-04-20T05:47:27.516Z,950.1375
2023-04-20T05:48:31.393Z,950.1658
2023-04-20T05:49:35.534Z,950.1884
2023-04-20T05:50:39.446Z,950.2017
2023-04-20T05:51:43.375Z,950.1984
2023-04-20T05:52:47.295Z,950.1800
2023-04-20T05:53:51.207Z,950.1633
2023-04-20T05:54:55.347Z,950.1625
2023-04-20T05:55:59.280Z,950.1758
2023-04-20T05:57:03.200Z,950.1550
2023-04-20T05:58:07.370Z,950.1666
2023-04-20T05:59:11.293Z,950.1792
2023-04-20T06:00:15.212Z,950.2008
2023-04-20T06:01:19.106Z,950.2266
2023-04-20T06:02:23.289Z,950.2150
2023-04-20T06:03:27.369Z,950.2208
2023-04-20T06:04:31.605Z,950.2125
2023-04-20T06:05:35.959Z,950.2233
2023-04-20T06:06:39.912Z,950.2325
2023-04-20T06:07:44.084Z,950.2125
2023-04-20T06:08:47.980Z,950.1791
2023-04-20T06:09:51.882Z,950.1492
2023-04-20T06:10:55.782Z,950.1266
2023-04-20T06:11:59.653Z,950.1250
2023-04-20T06:13:03.556Z,950.1216
2023-04-20T06:14:07.422Z,950.1234
2023-04-20T06:15:11.324Z,950.1141
2023-04-20T06:16:15.251Z,950.1066
2023-04-20T06:17:19.111Z,950.1133
2023-04-20T06:18:22.991Z,950.1259
2023-04-20T06:19:26.888Z,950.1225
2023-04-20T06:20:30.806Z,950.1317
2023-04-20T06:21:34.709Z,950.1442
2023-04-20T06:22:35.035Z,950.1582
2023-04-20T06:23:38.928Z,950.1675
2023-04-20T06:24:42.806Z,950.1808
2023-04-20T06:25:46.741Z,950.2025
2023-04-20T06:26:50.602Z,950.2275
2023-04-20T06:27:54.479Z,950.2592
2023-04-20T06:28:58.366Z,950.2700
2023-04-20T06:30:02.267Z,950.2692
2023-04-20T06:31:06.227Z,950.2642
2023-04-20T06:32:10.093Z,950.2441
2023-04-20T06:33:13.997Z,950.2167
2023-04-20T06:34:17.876Z,950.2117
2023-04-20T06:35:21.769Z,950.2050
2023-04-20T06:36:25.672Z,950.2025
2023-04-20T06:37:29.596Z,950.1775
2023-04-20T06:38:33.497Z,950.1483
2023-04-20T06:39:37.385Z,950.1375
2023-04-20T06:40:41.323Z,950.1334
2023-04-20T06:41:45.225Z,950.1375
2023-04-20T06:42:49.361Z,950.1450
2023-04-20T06:43:53.272Z,950.1525
2023-04-20T06:44:57.168Z,950.1750
2023-04-20T06:46:01.070Z,950.1791
2023-04-20T06:47:05.034Z,950.2050
2023-04-20T06:48:20.302Z,950.2008
2023-04-20T06:49:13.461Z,950.1691
2023-04-20T06:50:17.364Z,950.1309
2023-04-20T06:51:21.283Z,950.0933
2023-04-20T06:52:25.179Z,950.0734
2023-04-20T06:53:29.067Z,950.0641
2023-04-20T06:54:32.971Z,950.0600
2023-04-20T06:55:36.861Z,950.0742
2023-04-20T06:56:40.783Z,950.1017
2023-04-20T06:57:44.738Z,950.1234
2023-04-20T06:58:48.843Z,950.1467
2023-04-20T06:59:52.714Z,950.1942
2023-04-20T07:00:56.617Z,950.2225
2023-04-20T07:02:00.598Z,950.2275
2023-04-20T07:03:04.856Z,950.2250
2023-04-20T07:04:08.958Z,950.2366
2023-04-20T07:05:13.155Z,950.2200
2023-04-20T07:06:17.039Z,950.2084
2023-04-20T07:07:20.957Z,950.1884
2023-04-20T07:08:24.922Z,950.1616
2023-04-20T07:09:28.841Z,950.1317
2023-04-20T07:10:32.758Z,950.0933
2023-04-20T07:11:36.652Z,950.0483
2023-04-20T07:12:42.850Z,950.0367
2023-04-20T07:13:42.273Z,950.0491
2023-04-20T07:14:46.150Z,950.0900
2023-04-20T07:15:50.069Z,950.1191
2023-04-20T07:16:54.038Z,950.1617
2023-04-20T07:17:58.102Z,950.1850
2023-04-20T07:19:02.167Z,950.2183
2023-04-20T07:20:06.266Z,950.2416
2023-04-20T07:21:10.180Z,950.2567
2023-04-20T07:22:14.066Z,950.2550
2023-04-20T07:23:17.976Z,950.2375
2023-04-20T07:24:21.857Z,950.2150
2023-04-20T07:25:25.814Z,950.1808
2023-04-20T07:26:29.720Z,950.1517
2023-04-20T07:27:33.921Z,950.1459
2023-04-20T07:28:37.813Z,950.1434
2023-04-20T07:29:41.746Z,950.1733
2023-04-20T07:30:45.885Z,950.1967
2023-04-20T07:31:49.836Z,950.2341
2023-04-20T07:32:53.783Z,950.2633
2023-04-20T07:33:57.740Z,950.3058
2023-04-20T07:35:01.634Z,950.3167
2023-04-20T07:36:05.546Z,950.3041
2023-04-20T07:37:09.464Z,950.2633
2023-04-20T07:38:13.385Z,950.2242
2023-04-20T07:39:17.378Z,950.1900
2023-04-20T07:40:21.502Z,950.1583
2023-04-20T07:41:25.398Z,950.1650
2023-04-20T07:42:29.784Z,950.1850
2023-04-20T07:43:33.760Z,950.2250
2023-04-20T07:44:37.686Z,950.2559
2023-04-20T07:45:41.819Z,950.3100
2023-04-20T07:46:45.759Z,950.3433
2023-04-20T07:47:49.779Z,950.3525
2023-04-20T07:48:54.096Z,950.3508
2023-04-20T07:49:58.019Z,950.3267
2023-04-20T07:51:01.968Z,950.3033
2023-04-20T07:52:15.769Z,950.2675
2023-04-20T07:53:10.353Z,950.2518
2023-04-20T07:54:14.300Z,950.2366
2023-04-20T07:55:18.536Z,950.2458
2023-04-20T07:56:22.447Z,950.2684
2023-04-20T07:57:26.723Z,950.3075
2023-04-20T07:58:30.618Z,950.3358
2023-04-20T07:59:34.548Z,950.3817
2023-04-20T08:00:38.524Z,950.4117
2023-04-20T08:01:42.425Z,950.4333
2023-04-20T08:02:46.486Z,950.4425
2023-04-20T08:03:50.765Z,950.4125
2023-04-20T08:04:54.983Z,950.3850
2023-04-20T08:05:59.126Z,950.3583
2023-04-20T08:07:03.127Z,950.3392
2023-04-20T08:08:07.094Z,950.3334
2023-04-20T08:09:13.282Z,950.3184
2023-04-20T08:10:12.023Z,950.3191
2023-04-20T08:11:15.942Z,950.3184
2023-04-20T08:12:20.118Z,950.3125
2023-04-20T08:13:24.046Z,950.3033
2023-04-20T08:14:28.022Z,950.2950
2023-04-20T08:15:32.075Z,950.2983
2023-04-20T08:16:36.086Z,950.2908
2023-04-20T08:17:40.285Z,950.2634
2023-04-20T08:18:44.179Z,950.2275
2023-04-20T08:19:48.332Z,950.1925
2023-04-20T08:20:52.282Z,950.1517
2023-04-20T08:21:56.184Z,950.1191
2023-04-20T08:23:00.145Z,950.0675
2023-04-20T08:24:04.013Z,950.0367
2023-04-20T08:25:07.937Z,950.0142
2023-04-20T08:26:11.859Z,949.9984
2023-04-20T08:27:15.816Z,950.0125
2023-04-20T08:28:32.411Z,950.0392
2023-04-20T08:29:24.295Z,950.0709
2023-04-20T08:30:24.786Z,950.1055
2023-04-20T08:31:28.909Z,950.1309
2023-04-20T08:32:32.944Z,950.1216
2023-04-20T08:33:36.881Z,950.1158
2023-04-20T08:34:40.831Z,950.1033
2023-04-20T08:35:44.838Z,950.0825
2023-04-20T08:36:48.874Z,950.0875
2023-04-20T08:37:52.798Z,950.0775
2023-04-20T08:38:56.836Z,950.0583
2023-04-20T08:40:01.032Z,950.0600
2023-04-20T08:41:04.952Z,950.0292
2023-04-20T08:42:08.890Z,950.0050
2023-04-20T08:43:12.859Z,949.9866
2023-04-20T08:44:17.038Z,949.9442
2023-04-20T08:45:21.087Z,949.9366
2023-04-20T08:46:25.040Z,949.9258
2023-04-20T08:47:28.967Z,949.9141
2023-04-20T08:48:33.725Z,949.9258
2023-04-20T08:49:38.245Z,949.9683
2023-04-20T08:50:42.162Z,949.9941
2023-04-20T08:51:46.106Z,950.0009
2023-04-20T08:52:50.148Z,949.9858
2023-04-20T08:53:54.043Z,949.9808
2023-04-20T08:54:58.755Z,949.9484
2023-04-20T08:56:02.627Z,949.9166
2023-04-20T08:57:06.550Z,949.8909
2023-04-20T08:58:10.460Z,949.8550
2023-04-20T08:59:14.530Z,949.8342
2023-04-20T09:00:18.697Z,949.8184
2023-04-20T09:01:32.176Z,949.8066
2023-04-20T09:02:27.425Z,949.8118
2023-04-20T09:03:31.706Z,949.8250
2023-04-20T09:04:35.710Z,949.8583
2023-04-20T09:05:39.627Z,949.8700
2023-04-20T09:06:43.518Z,949.8800
2023-04-20T09:07:47.436Z,949.8900
2023-04-20T09:08:51.344Z,949.8591
2023-04-20T09:09:55.287Z,949.8383
2023-04-20T09:10:59.198Z,949.8017
2023-04-20T09:12:03.110Z,949.7516
2023-04-20T09:13:07.019Z,949.7250
2023-04-20T09:14:10.953Z,949.6708
2023-04-20T09:15:15.124Z,949.6367
2023-04-20T09:16:19.096Z,949.5975
2023-04-20T09:17:23.080Z,949.5759
2023-04-20T09:18:26.991Z,949.5717
2023-04-20T09:19:30.939Z,949.5709
2023-04-20T09:20:34.874Z,949.5983
2023-04-20T09:21:38.840Z,949.6158
2023-04-20T09:22:42.866Z,949.6334
2023-04-20T09:23:46.850Z,949.6475
2023-04-20T09:24:50.770Z,949.6433
2023-04-20T09:25:54.710Z,949.6309
2023-04-20T09:26:58.617Z,949.6259
2023-04-20T09:28:02.533Z,949.6234
2023-04-20T09:29:06.450Z,949.6216
2023-04-20T09:30:10.730Z,949.6133
2023-04-20T09:31:15.120Z,949.6150
2023-04-20T09:32:19.114Z,949.5875
2023-04-20T09:33:23.098Z,949.5825
2023-04-20T09:34:27.038Z,949.5641
2023-04-20T09:35:30.900Z,949.5850
2023-04-20T09:36:34.823Z,949.5883
2023-04-20T09:37:38.723Z,949.5991
2023-04-20T09:38:42.616Z,949.6300
2023-04-20T09:39:46.524Z,949.6525
2023-04-20T09:40:50.428Z,949.6533
2023-04-20T09:41:54.295Z,949.6492
2023-04-20T09:42:58.198Z,949.6558
2023-04-20T09:44:02.090Z,949.6367
2023-04-20T09:45:06.107Z,949.6225
2023-04-20T09:46:10.041Z,949.6225
2023-04-20T09:47:14.179Z,949.6075
2023-04-20T09:48:18.089Z,949.5992
2023-04-20T09:49:22.008Z,949.5975
2023-04-20T09:50:35.008Z,949.5884
2023-04-20T09:51:30.390Z,949.5973
2023-04-20T09:52:34.307Z,949.6067
2023-04-20T09:53:38.198Z,949.6183
2023-04-20T09:54:42.096Z,949.6483
2023-04-20T09:55:46.002Z,949.6692
2023-04-20T09:56:49.952Z,949.6766
2023-04-20T09:57:54.036Z,949.6875
2023-04-20T09:58:57.944Z,949.7050
2023-04-20T10:00:01.870Z,949.7050
2023-04-20T10:01:05.782Z,949.7034
2023-04-20T10:02:09.741Z,949.6992
2023-04-20T10:03:13.781Z,949.6733
2023-04-20T10:04:18.087Z,949.6567
2023-04-20T10:05:22.297Z,949.6292
2023-04-20T10:06:26.317Z,949.6367
2023-04-20T10:07:30.425Z,949.6442
2023-04-20T10:08:34.355Z,949.6608
2023-04-20T10:09:38.248Z,949.6616
2023-04-20T10:10:42.193Z,949.6633
2023-04-20T10:11:53.226Z,949.6666
2023-04-20T10:12:50.598Z,949.6837
2023-04-20T10:13:54.480Z,949.6825
2023-04-20T10:14:58.678Z,949.6808
2023-04-20T10:16:02.588Z,949.6766
2023-04-20T10:17:06.659Z,949.6816
2023-04-20T10:18:10.788Z,949.6700
2023-04-20T10:19:14.702Z,949.6450
2023-04-20T10:20:18.628Z,949.6334
2023-04-20T10:21:22.541Z,949.6250
2023-04-20T10:22:26.433Z,949.6359
2023-04-20T10:23:30.318Z,949.6616
2023-04-20T10:24:34.247Z,949.6600
2023-04-20T10:25:38.163Z,949.6317
2023-04-20T10:26:42.039Z,949.6191
2023-04-20T10:27:46.127Z,949.5709
2023-04-20T10:28:50.020Z,949.5792
2023-04-20T10:29:53.930Z,949.5817
2023-04-20T10:30:57.845Z,949.6000
2023-04-20T10:32:01.735Z,949.6266
2023-04-20T10:33:05.653Z,949.6259
2023-04-20T10:34:09.576Z,949.6191
2023-04-20T10:35:13.490Z,949.6175
2023-04-20T10:36:17.409Z,949.6158
2023-04-20T10:37:21.313Z,949.6259
2023-04-20T10:38:25.257Z,949.6100
2023-04-20T10:39:29.106Z,949.5825
2023-04-20T10:40:33.031Z,949.5875
2023-04-20T10:41:36.916Z,949.5659
2023-04-20T10:42:41.087Z,949.5550
2023-04-20T10:43:45.008Z,949.5350
2023-04-20T10:44:48.974Z,949.4958
2023-04-20T10:45:52.953Z,949.4883
2023-04-20T10:46:56.838Z,949.4858
2023-04-20T10:48:00.771Z,949.4850
2023-04-20T10:49:04.686Z,949.5025
2023-04-20T10:50:08.600Z,949.5142
2023-04-20T10:51:12.486Z,949.5325
2023-04-20T10:52:18.022Z,949.5541
2023-04-20T10:53:21.940Z,949.5650
2023-04-20T10:54:25.926Z,949.5700
2023-04-20T10:55:29.860Z,949.5742
2023-04-20T10:56:33.886Z,949.5734
2023-04-20T10:57:38.141Z,949.5466
2023-04-20T10:58:42.054Z,949.5016
2023-04-20T10:59:46.052Z,949.4633
2023-04-20T11:00:49.976Z,949.4459
2023-04-20T11:01:54.071Z,949.4291
2023-04-20T11:02:58.389Z,949.4375
2023-04-20T11:04:02.629Z,949.4417
2023-04-20T11:05:06.754Z,949.4359
2023-04-20T11:06:10.788Z,949.4333
2023-04-20T11:07:14.795Z,949.4225
2023-04-20T11:08:18.705Z,949.3900
2023-04-20T11:09:22.708Z,949.3358
2023-04-20T11:10:26.656Z,949.3159
2023-04-20T11:11:30.644Z,949.3167
2023-04-20T11:12:34.803Z,949.3217
2023-04-20T11:13:38.776Z,949.3375
2023-04-20T11:14:42.867Z,949.3400
2023-04-20T11:15:46.844Z,949.3342
2023-04-20T11:16:52.075Z,949.3284
2023-04-20T11:17:51.270Z,949.3291
2023-04-20T11:18:55.187Z,949.3333
2023-04-20T11:19:59.140Z,949.3058
2023-04-20T11:21:03.067Z,949.3192
2023-04-20T11:22:07.064Z,949.3250
2023-04-20T11:23:11.021Z,949.3192
2023-04-20T11:24:14.958Z,949.2950
2023-04-20T11:25:19.025Z,949.2817
2023-04-20T11:26:23.091Z,949.2734
2023-04-20T11:27:27.090Z,949.2942
2023-04-20T11:28:31.008Z,949.3075
2023-04-20T11:29:34.963Z,949.2908
2023-04-20T11:30:38.887Z,949.2700
2023-04-20T11:31:43.036Z,949.2817
2023-04-20T11:32:47.118Z,949.2634
2023-04-20T11:33:51.129Z,949.2559
2023-04-20T11:35:05.520Z,949.2391
2023-04-20T11:35:59.535Z,949.2500
2023-04-20T11:37:03.752Z,949.2542
2023-04-20T11:38:07.767Z,949.2783
2023-04-20T11:39:11.674Z,949.2758
2023-04-20T11:40:15.587Z,949.2516
2023-04-20T11:41:19.526Z,949.2408
2023-04-20T11:42:23.461Z,949.2609
2023-04-20T11:43:27.386Z,949.2883
2023-04-20T11:44:31.353Z,949.3033
2023-04-20T11:45:36.292Z,949.3184
2023-04-20T11:46:40.537Z,949.3050
2023-04-20T11:47:44.481Z,949.2933
2023-04-20T11:48:48.465Z,949.2709
2023-04-20T11:49:52.531Z,949.2559
2023-04-20T11:50:56.465Z,949.2559
2023-04-20T11:52:00.425Z,949.2491
2023-04-20T11:53:04.410Z,949.2625
2023-04-20T11:54:08.368Z,949.2867
2023-04-20T11:55:12.317Z,949.3041
2023-04-20T11:56:16.216Z,949.3325
2023-04-20T11:57:20.187Z,949.3450
2023-04-20T11:58:24.100Z,949.3517
2023-04-20T11:59:28.016Z,949.3575
2023-04-20T12:00:31.964Z,949.3508
2023-04-20T12:01:35.940Z,949.3666
2023-04-20T12:02:40.235Z,949.3558
2023-04-20T12:03:47.584Z,949.3734
2023-04-20T12:04:46.802Z,949.3718
2023-04-20T12:05:50.858Z,949.3517
2023-04-20T12:06:54.879Z,949.3500
2023-04-20T12:07:58.851Z,949.3517
2023-04-20T12:09:02.785Z,949.3691
2023-04-20T12:10:06.897Z,949.3675
2023-04-20T12:11:10.836Z,949.3525
2023-04-20T12:12:14.779Z,949.3408
2023-04-20T12:13:18.720Z,949.3350
2023-04-20T12:14:22.673Z,949.3309
2023-04-20T12:15:26.621Z,949.3475
2023-04-20T12:16:30.615Z,949.3600
2023-04-20T12:17:34.552Z,949.3691
2023-04-20T12:18:38.444Z,949.3825
2023-04-20T12:19:39.016Z,949.3791
2023-04-20T12:20:42.981Z,949.3875
2023-04-20T12:21:46.898Z,949.3842
2023-04-20T12:22:51.100Z,949.3708
2023-04-20T12:23:55.082Z,949.3483
2023-04-20T12:24:59.080Z,949.3275
2023-04-20T12:26:03.025Z,949.3125
2023-04-20T12:27:06.926Z,949.2867
2023-04-20T12:28:10.843Z,949.2792
2023-04-20T12:29:14.846Z,949.2758
2023-04-20T12:30:18.768Z,949.2792